sensor_id;sensor_type;location;lat;lon;timestamp;temperature;humidity
17994;DHT22;9122;48.406;9.984;2022-08-11T00:02:03;21.90;47.20
17994;DHT22;9122;48.406;9.984;2022-08-11T00:04:48;21.80;47.30
17994;DHT22;9122;48.406;9.984;2022-08-11T00:07:35;21.80;47.40
17994;DHT22;9122;48.406;9.984;2022-08-11T00:10:26;21.70;47.50
17994;DHT22;9122;48.406;9.984;2022-08-11T00:13:11;21.70;47.50
17994;DHT22;9122;48.406;9.984;2022-08-11T00:15:55;21.70;47.70
17994;DHT22;9122;48.406;9.984;2022-08-11T00:18:48;21.70;47.80
17994;DHT22;9122;48.406;9.984;2022-08-11T00:21:40;21.70;48.10
17994;DHT22;9122;48.406;9.984;2022-08-11T00:24:33;21.60;48.20
17994;DHT22;9122;48.406;9.984;2022-08-11T00:27:18;21.50;48.40
17994;DHT22;9122;48.406;9.984;2022-08-11T00:30:05;21.50;48.50
17994;DHT22;9122;48.406;9.984;2022-08-11T00:32:55;21.50;48.70
17994;DHT22;9122;48.406;9.984;2022-08-11T00:35:42;21.50;48.70
17994;DHT22;9122;48.406;9.984;2022-08-11T00:38:32;21.40;48.80
17994;DHT22;9122;48.406;9.984;2022-08-11T00:56:22;21.20;49.70
17994;DHT22;9122;48.406;9.984;2022-08-11T01:03:01;21.20;50.00
17994;DHT22;9122;48.406;9.984;2022-08-11T01:50:06;20.70;51.80
17994;DHT22;9122;48.406;9.984;2022-08-11T01:53:11;20.70;51.90
17994;DHT22;9122;48.406;9.984;2022-08-11T01:59:16;20.70;52.10
17994;DHT22;9122;48.406;9.984;2022-08-11T02:02:12;20.60;52.20
17994;DHT22;9122;48.406;9.984;2022-08-11T02:05:06;20.60;52.30
17994;DHT22;9122;48.406;9.984;2022-08-11T02:14:16;20.60;52.60
17994;DHT22;9122;48.406;9.984;2022-08-11T02:17:19;20.50;52.70
17994;DHT22;9122;48.406;9.984;2022-08-11T02:24:03;20.40;52.80
17994;DHT22;9122;48.406;9.984;2022-08-11T02:27:03;20.40;52.90
17994;DHT22;9122;48.406;9.984;2022-08-11T02:30:03;20.40;53.10
17994;DHT22;9122;48.406;9.984;2022-08-11T02:32:57;20.40;53.20
17994;DHT22;9122;48.406;9.984;2022-08-11T02:36:17;20.30;53.30
17994;DHT22;9122;48.406;9.984;2022-08-11T02:39:09;20.30;53.30
17994;DHT22;9122;48.406;9.984;2022-08-11T02:54:28;20.20;53.80
17994;DHT22;9122;48.406;9.984;2022-08-11T02:57:21;20.20;53.90
17994;DHT22;9122;48.406;9.984;2022-08-11T03:00:12;20.10;54.00
17994;DHT22;9122;48.406;9.984;2022-08-11T03:06:17;20.10;54.20
17994;DHT22;9122;48.406;9.984;2022-08-11T03:09:16;20.00;54.30
17994;DHT22;9122;48.406;9.984;2022-08-11T03:12:08;20.00;54.40
17994;DHT22;9122;48.406;9.984;2022-08-11T03:15:21;20.00;54.50
17994;DHT22;9122;48.406;9.984;2022-08-11T03:18:41;20.00;54.60
17994;DHT22;9122;48.406;9.984;2022-08-11T03:22:18;20.00;54.60
17994;DHT22;9122;48.406;9.984;2022-08-11T03:24:59;19.90;54.70
17994;DHT22;9122;48.406;9.984;2022-08-11T03:28:50;19.90;54.90
17994;DHT22;9122;48.406;9.984;2022-08-11T03:31:39;19.90;55.00
17994;DHT22;9122;48.406;9.984;2022-08-11T03:34:30;19.80;55.00
17994;DHT22;9122;48.406;9.984;2022-08-11T03:37:38;19.80;55.10
17994;DHT22;9122;48.406;9.984;2022-08-11T03:41:06;19.80;55.20
17994;DHT22;9122;48.406;9.984;2022-08-11T03:57:04;19.60;55.70
17994;DHT22;9122;48.406;9.984;2022-08-11T04:03:26;19.50;55.90
17994;DHT22;9122;48.406;9.984;2022-08-11T04:18:57;19.40;56.40
17994;DHT22;9122;48.406;9.984;2022-08-11T04:31:29;19.30;56.80
17994;DHT22;9122;48.406;9.984;2022-08-11T04:34:36;19.20;56.90
17994;DHT22;9122;48.406;9.984;2022-08-11T04:50:26;19.20;57.40
17994;DHT22;9122;48.406;9.984;2022-08-11T04:56:51;19.20;57.60
17994;DHT22;9122;48.406;9.984;2022-08-11T05:00:05;19.20;57.70
17994;DHT22;9122;48.406;9.984;2022-08-11T05:12:59;19.20;57.90
17994;DHT22;9122;48.406;9.984;2022-08-11T05:16:09;19.20;58.00
17994;DHT22;9122;48.406;9.984;2022-08-11T05:19:18;19.20;58.00
17994;DHT22;9122;48.406;9.984;2022-08-11T05:22:27;19.30;58.00
17994;DHT22;9122;48.406;9.984;2022-08-11T05:25:31;19.30;58.10
17994;DHT22;9122;48.406;9.984;2022-08-11T05:29:00;19.30;58.30
17994;DHT22;9122;48.406;9.984;2022-08-11T05:32:05;19.30;58.20
17994;DHT22;9122;48.406;9.984;2022-08-11T05:35:09;19.40;58.30
17994;DHT22;9122;48.406;9.984;2022-08-11T05:37:55;19.40;58.30
17994;DHT22;9122;48.406;9.984;2022-08-11T05:40:59;19.50;58.50
17994;DHT22;9122;48.406;9.984;2022-08-11T05:44:04;19.50;58.40
17994;DHT22;9122;48.406;9.984;2022-08-11T05:47:08;19.50;58.20
17994;DHT22;9122;48.406;9.984;2022-08-11T05:50:15;19.60;58.10
17994;DHT22;9122;48.406;9.984;2022-08-11T05:53:19;19.60;58.00
17994;DHT22;9122;48.406;9.984;2022-08-11T05:56:23;19.70;58.10
17994;DHT22;9122;48.406;9.984;2022-08-11T05:59:16;19.70;58.00
17994;DHT22;9122;48.406;9.984;2022-08-11T06:02:03;19.80;57.90
17994;DHT22;9122;48.406;9.984;2022-08-11T06:04:55;19.80;57.90
17994;DHT22;9122;48.406;9.984;2022-08-11T06:07:41;19.90;57.70
17994;DHT22;9122;48.406;9.984;2022-08-11T06:10:32;19.90;57.80
17994;DHT22;9122;48.406;9.984;2022-08-11T06:13:17;20.00;57.60
17994;DHT22;9122;48.406;9.984;2022-08-11T06:16:02;20.00;57.60
17994;DHT22;9122;48.406;9.984;2022-08-11T06:18:47;20.10;57.70
17994;DHT22;9122;48.406;9.984;2022-08-11T06:21:33;20.10;57.70
17994;DHT22;9122;48.406;9.984;2022-08-11T06:24:19;20.20;57.80
17994;DHT22;9122;48.406;9.984;2022-08-11T06:27:06;20.20;57.50
17994;DHT22;9122;48.406;9.984;2022-08-11T06:29:52;20.30;57.50
17994;DHT22;9122;48.406;9.984;2022-08-11T06:32:38;20.30;57.30
17994;DHT22;9122;48.406;9.984;2022-08-11T06:38:27;20.50;57.00
17994;DHT22;9122;48.406;9.984;2022-08-11T06:41:23;20.60;56.90
17994;DHT22;9122;48.406;9.984;2022-08-11T06:44:21;20.60;56.80
17994;DHT22;9122;48.406;9.984;2022-08-11T06:47:11;20.70;56.70
17994;DHT22;9122;48.406;9.984;2022-08-11T06:49:58;20.80;56.60
17994;DHT22;9122;48.406;9.984;2022-08-11T06:53:04;20.90;56.60
17994;DHT22;9122;48.406;9.984;2022-08-11T06:55:50;20.90;56.30
17994;DHT22;9122;48.406;9.984;2022-08-11T06:58:53;21.00;56.40
17994;DHT22;9122;48.406;9.984;2022-08-11T07:14:10;21.30;56.20
17994;DHT22;9122;48.406;9.984;2022-08-11T07:17:23;21.40;56.40
17994;DHT22;9122;48.406;9.984;2022-08-11T07:20:09;21.50;56.20
17994;DHT22;9122;48.406;9.984;2022-08-11T07:23:15;21.60;56.30
17994;DHT22;9122;48.406;9.984;2022-08-11T07:26:21;21.70;56.10
17994;DHT22;9122;48.406;9.984;2022-08-11T07:29:26;21.80;55.90
17994;DHT22;9122;48.406;9.984;2022-08-11T07:32:18;21.90;56.00
17994;DHT22;9122;48.406;9.984;2022-08-11T07:35:12;22.00;55.90
17994;DHT22;9122;48.406;9.984;2022-08-11T07:38:06;22.10;55.40
17994;DHT22;9122;48.406;9.984;2022-08-11T07:40:51;22.20;55.40
17994;DHT22;9122;48.406;9.984;2022-08-11T07:43:37;22.30;55.30
17994;DHT22;9122;48.406;9.984;2022-08-11T07:46:22;22.40;55.00
17994;DHT22;9122;48.406;9.984;2022-08-11T07:49:27;22.40;54.50
17994;DHT22;9122;48.406;9.984;2022-08-11T07:52:33;22.50;54.50
17994;DHT22;9122;48.406;9.984;2022-08-11T07:55:22;22.60;54.30
17994;DHT22;9122;48.406;9.984;2022-08-11T07:58:12;22.70;54.50
17994;DHT22;9122;48.406;9.984;2022-08-11T08:01:23;22.80;53.60
17994;DHT22;9122;48.406;9.984;2022-08-11T08:04:28;22.90;53.40
17994;DHT22;9122;48.406;9.984;2022-08-11T08:07:31;23.00;53.50
17994;DHT22;9122;48.406;9.984;2022-08-11T08:10:36;23.10;53.50
17994;DHT22;9122;48.406;9.984;2022-08-11T08:13:41;23.20;53.30
17994;DHT22;9122;48.406;9.984;2022-08-11T08:16:45;23.30;53.00
17994;DHT22;9122;48.406;9.984;2022-08-11T08:19:49;23.40;52.50
17994;DHT22;9122;48.406;9.984;2022-08-11T08:22:34;23.40;52.50
17994;DHT22;9122;48.406;9.984;2022-08-11T08:25:20;23.50;52.60
17994;DHT22;9122;48.406;9.984;2022-08-11T08:28:24;23.60;52.70
17994;DHT22;9122;48.406;9.984;2022-08-11T08:31:09;23.70;52.10
17994;DHT22;9122;48.406;9.984;2022-08-11T08:33:54;23.90;52.20
17994;DHT22;9122;48.406;9.984;2022-08-11T08:36:42;23.90;51.40
17994;DHT22;9122;48.406;9.984;2022-08-11T08:39:33;24.00;50.80
17994;DHT22;9122;48.406;9.984;2022-08-11T08:42:25;24.10;51.10
17994;DHT22;9122;48.406;9.984;2022-08-11T08:45:12;24.20;50.60
17994;DHT22;9122;48.406;9.984;2022-08-11T08:48:01;24.30;50.00
17994;DHT22;9122;48.406;9.984;2022-08-11T08:50:52;24.40;49.70
17994;DHT22;9122;48.406;9.984;2022-08-11T08:54:22;24.50;49.30
17994;DHT22;9122;48.406;9.984;2022-08-11T08:57:06;24.50;48.50
17994;DHT22;9122;48.406;9.984;2022-08-11T08:59:51;24.60;48.70
17994;DHT22;9122;48.406;9.984;2022-08-11T09:02:36;24.60;47.90
17994;DHT22;9122;48.406;9.984;2022-08-11T09:05:20;24.70;48.20
17994;DHT22;9122;48.406;9.984;2022-08-11T09:08:06;24.70;47.20
17994;DHT22;9122;48.406;9.984;2022-08-11T09:10:51;24.80;47.00
17994;DHT22;9122;48.406;9.984;2022-08-11T09:13:55;24.80;46.50
17994;DHT22;9122;48.406;9.984;2022-08-11T09:16:40;24.90;46.40
17994;DHT22;9122;48.406;9.984;2022-08-11T09:19:25;24.90;46.30
17994;DHT22;9122;48.406;9.984;2022-08-11T09:22:10;25.00;46.80
17994;DHT22;9122;48.406;9.984;2022-08-11T09:25:20;25.00;46.30
17994;DHT22;9122;48.406;9.984;2022-08-11T09:28:28;25.10;46.50
17994;DHT22;9122;48.406;9.984;2022-08-11T09:31:15;25.20;45.90
17994;DHT22;9122;48.406;9.984;2022-08-11T09:34:00;25.30;45.60
17994;DHT22;9122;48.406;9.984;2022-08-11T09:36:45;25.40;45.60
17994;DHT22;9122;48.406;9.984;2022-08-11T09:39:50;25.50;45.20
17994;DHT22;9122;48.406;9.984;2022-08-11T09:43:02;25.50;45.20
17994;DHT22;9122;48.406;9.984;2022-08-11T09:46:13;25.60;44.80
17994;DHT22;9122;48.406;9.984;2022-08-11T09:48:59;25.60;44.60
17994;DHT22;9122;48.406;9.984;2022-08-11T09:51:44;25.70;44.30
17994;DHT22;9122;48.406;9.984;2022-08-11T09:54:30;25.80;44.70
17994;DHT22;9122;48.406;9.984;2022-08-11T09:57:20;25.80;44.20
17994;DHT22;9122;48.406;9.984;2022-08-11T10:00:33;25.90;43.60
17994;DHT22;9122;48.406;9.984;2022-08-11T10:03:22;25.90;43.70
17994;DHT22;9122;48.406;9.984;2022-08-11T10:06:08;26.00;43.50
17994;DHT22;9122;48.406;9.984;2022-08-11T10:09:17;26.00;43.50
17994;DHT22;9122;48.406;9.984;2022-08-11T10:12:03;26.00;43.40
17994;DHT22;9122;48.406;9.984;2022-08-11T10:14:57;26.10;43.30
17994;DHT22;9122;48.406;9.984;2022-08-11T10:21:29;26.20;42.80
17994;DHT22;9122;48.406;9.984;2022-08-11T10:24:17;26.30;43.40
17994;DHT22;9122;48.406;9.984;2022-08-11T10:27:20;26.30;43.10
17994;DHT22;9122;48.406;9.984;2022-08-11T10:30:06;26.40;42.90
17994;DHT22;9122;48.406;9.984;2022-08-11T10:33:12;26.40;43.10
17994;DHT22;9122;48.406;9.984;2022-08-11T10:36:17;26.50;42.60
17994;DHT22;9122;48.406;9.984;2022-08-11T10:39:03;26.60;43.10
17994;DHT22;9122;48.406;9.984;2022-08-11T10:41:48;26.60;42.60
17994;DHT22;9122;48.406;9.984;2022-08-11T10:44:53;26.70;42.70
17994;DHT22;9122;48.406;9.984;2022-08-11T10:47:39;26.70;42.30
17994;DHT22;9122;48.406;9.984;2022-08-11T10:50:24;26.80;42.30
17994;DHT22;9122;48.406;9.984;2022-08-11T10:53:28;26.80;42.30
17994;DHT22;9122;48.406;9.984;2022-08-11T10:56:34;26.80;42.00
17994;DHT22;9122;48.406;9.984;2022-08-11T10:59:39;26.80;42.20
17994;DHT22;9122;48.406;9.984;2022-08-11T11:02:26;26.90;43.10
17994;DHT22;9122;48.406;9.984;2022-08-11T11:05:34;26.90;42.10
17994;DHT22;9122;48.406;9.984;2022-08-11T11:08:20;27.00;41.30
17994;DHT22;9122;48.406;9.984;2022-08-11T11:11:27;27.00;42.40
17994;DHT22;9122;48.406;9.984;2022-08-11T11:14:33;27.00;42.00
17994;DHT22;9122;48.406;9.984;2022-08-11T11:17:42;27.10;42.00
17994;DHT22;9122;48.406;9.984;2022-08-11T11:21:09;27.10;41.30
17994;DHT22;9122;48.406;9.984;2022-08-11T11:24:15;27.20;41.60
17994;DHT22;9122;48.406;9.984;2022-08-11T11:30:15;27.30;41.30
17994;DHT22;9122;48.406;9.984;2022-08-11T11:33:11;27.40;40.80
17994;DHT22;9122;48.406;9.984;2022-08-11T11:36:27;27.30;40.80
17994;DHT22;9122;48.406;9.984;2022-08-11T11:39:20;27.40;40.90
17994;DHT22;9122;48.406;9.984;2022-08-11T11:42:08;27.40;40.70
17994;DHT22;9122;48.406;9.984;2022-08-11T11:44:53;27.40;40.70
17994;DHT22;9122;48.406;9.984;2022-08-11T11:47:38;27.40;41.00
17994;DHT22;9122;48.406;9.984;2022-08-11T11:50:29;27.50;41.10
17994;DHT22;9122;48.406;9.984;2022-08-11T11:53:14;27.50;41.10
17994;DHT22;9122;48.406;9.984;2022-08-11T11:55:59;27.60;40.50
17994;DHT22;9122;48.406;9.984;2022-08-11T11:58:44;27.60;39.50
17994;DHT22;9122;48.406;9.984;2022-08-11T12:02:11;27.70;40.00
17994;DHT22;9122;48.406;9.984;2022-08-11T12:04:56;27.70;40.10
17994;DHT22;9122;48.406;9.984;2022-08-11T12:07:40;27.70;40.30
17994;DHT22;9122;48.406;9.984;2022-08-11T12:11:05;27.80;40.20
17994;DHT22;9122;48.406;9.984;2022-08-11T12:14:09;27.80;40.10
17994;DHT22;9122;48.406;9.984;2022-08-11T12:16:55;27.80;40.10
17994;DHT22;9122;48.406;9.984;2022-08-11T12:19:40;27.90;39.40
17994;DHT22;9122;48.406;9.984;2022-08-11T12:22:25;27.90;39.20
17994;DHT22;9122;48.406;9.984;2022-08-11T12:25:28;27.90;39.20
17994;DHT22;9122;48.406;9.984;2022-08-11T12:28:33;27.90;39.50
17994;DHT22;9122;48.406;9.984;2022-08-11T12:31:18;27.90;38.90
17994;DHT22;9122;48.406;9.984;2022-08-11T12:34:15;27.90;39.00
17994;DHT22;9122;48.406;9.984;2022-08-11T12:37:00;27.90;38.50
17994;DHT22;9122;48.406;9.984;2022-08-11T12:39:50;27.90;38.10
17994;DHT22;9122;48.406;9.984;2022-08-11T12:43:03;27.90;38.00
17994;DHT22;9122;48.406;9.984;2022-08-11T12:46:13;27.90;37.80
17994;DHT22;9122;48.406;9.984;2022-08-11T12:49:14;27.90;38.30
17994;DHT22;9122;48.406;9.984;2022-08-11T12:52:25;27.90;37.50
17994;DHT22;9122;48.406;9.984;2022-08-11T12:55:16;27.90;38.10
17994;DHT22;9122;48.406;9.984;2022-08-11T12:58:26;27.90;38.20
17994;DHT22;9122;48.406;9.984;2022-08-11T13:01:11;27.90;38.50
17994;DHT22;9122;48.406;9.984;2022-08-11T13:04:15;27.90;38.60
17994;DHT22;9122;48.406;9.984;2022-08-11T13:07:18;27.90;38.40
17994;DHT22;9122;48.406;9.984;2022-08-11T13:10:04;27.90;38.10
17994;DHT22;9122;48.406;9.984;2022-08-11T13:12:50;27.90;38.20
17994;DHT22;9122;48.406;9.984;2022-08-11T13:15:35;27.90;38.20
17994;DHT22;9122;48.406;9.984;2022-08-11T13:18:21;27.90;37.80
17994;DHT22;9122;48.406;9.984;2022-08-11T13:21:08;27.90;37.90
17994;DHT22;9122;48.406;9.984;2022-08-11T13:23:54;27.90;38.20
17994;DHT22;9122;48.406;9.984;2022-08-11T13:26:39;27.90;37.60
17994;DHT22;9122;48.406;9.984;2022-08-11T13:29:25;28.00;38.00
17994;DHT22;9122;48.406;9.984;2022-08-11T13:32:10;28.00;37.80
17994;DHT22;9122;48.406;9.984;2022-08-11T13:34:55;28.00;37.50
17994;DHT22;9122;48.406;9.984;2022-08-11T13:37:41;28.00;37.30
17994;DHT22;9122;48.406;9.984;2022-08-11T13:40:28;28.00;37.40
17994;DHT22;9122;48.406;9.984;2022-08-11T13:43:15;28.00;37.50
17994;DHT22;9122;48.406;9.984;2022-08-11T13:46:00;28.00;37.30
17994;DHT22;9122;48.406;9.984;2022-08-11T13:49:04;28.00;37.50
17994;DHT22;9122;48.406;9.984;2022-08-11T13:51:52;28.00;37.60
17994;DHT22;9122;48.406;9.984;2022-08-11T13:54:37;28.00;37.50
17994;DHT22;9122;48.406;9.984;2022-08-11T13:57:23;28.00;37.40
17994;DHT22;9122;48.406;9.984;2022-08-11T14:00:08;28.00;37.30
17994;DHT22;9122;48.406;9.984;2022-08-11T14:02:53;28.00;36.70
17994;DHT22;9122;48.406;9.984;2022-08-11T14:05:50;27.90;36.60
17994;DHT22;9122;48.406;9.984;2022-08-11T14:08:39;27.90;37.00
17994;DHT22;9122;48.406;9.984;2022-08-11T14:11:27;27.90;37.90
17994;DHT22;9122;48.406;9.984;2022-08-11T14:14:32;27.90;37.40
17994;DHT22;9122;48.406;9.984;2022-08-11T14:17:19;27.90;36.80
17994;DHT22;9122;48.406;9.984;2022-08-11T14:20:07;27.80;37.00
17994;DHT22;9122;48.406;9.984;2022-08-11T14:22:53;27.80;37.20
17994;DHT22;9122;48.406;9.984;2022-08-11T14:25:40;27.80;37.10
17994;DHT22;9122;48.406;9.984;2022-08-11T14:28:45;27.80;36.60
17994;DHT22;9122;48.406;9.984;2022-08-11T14:31:31;27.80;36.40
17994;DHT22;9122;48.406;9.984;2022-08-11T14:34:21;27.80;36.30
17994;DHT22;9122;48.406;9.984;2022-08-11T14:37:12;27.80;37.00
17994;DHT22;9122;48.406;9.984;2022-08-11T14:39:59;27.80;36.50
17994;DHT22;9122;48.406;9.984;2022-08-11T14:42:44;27.80;36.30
17994;DHT22;9122;48.406;9.984;2022-08-11T14:45:47;27.80;36.50
17994;DHT22;9122;48.406;9.984;2022-08-11T14:48:51;27.70;36.60
17994;DHT22;9122;48.406;9.984;2022-08-11T14:51:37;27.70;36.70
17994;DHT22;9122;48.406;9.984;2022-08-11T14:54:25;27.70;36.70
17994;DHT22;9122;48.406;9.984;2022-08-11T14:57:31;27.70;36.70
17994;DHT22;9122;48.406;9.984;2022-08-11T15:00:16;27.70;37.00
17994;DHT22;9122;48.406;9.984;2022-08-11T15:03:03;27.70;36.20
17994;DHT22;9122;48.406;9.984;2022-08-11T15:05:57;27.70;36.40
17994;DHT22;9122;48.406;9.984;2022-08-11T15:08:52;27.70;36.30
17994;DHT22;9122;48.406;9.984;2022-08-11T15:11:44;27.70;36.40
17994;DHT22;9122;48.406;9.984;2022-08-11T15:14:47;27.70;36.50
17994;DHT22;9122;48.406;9.984;2022-08-11T15:17:53;27.70;36.30
17994;DHT22;9122;48.406;9.984;2022-08-11T15:20:37;27.70;35.90
17994;DHT22;9122;48.406;9.984;2022-08-11T15:23:41;27.70;36.00
17994;DHT22;9122;48.406;9.984;2022-08-11T15:26:46;27.70;36.30
17994;DHT22;9122;48.406;9.984;2022-08-11T15:29:52;27.60;36.30
17994;DHT22;9122;48.406;9.984;2022-08-11T15:32:57;27.60;36.10
17994;DHT22;9122;48.406;9.984;2022-08-11T15:36:05;27.70;36.00
17994;DHT22;9122;48.406;9.984;2022-08-11T15:39:20;27.60;36.20
17994;DHT22;9122;48.406;9.984;2022-08-11T15:42:14;27.60;36.30
17994;DHT22;9122;48.406;9.984;2022-08-11T15:45:21;27.60;35.40
17994;DHT22;9122;48.406;9.984;2022-08-11T15:48:43;27.60;35.50
17994;DHT22;9122;48.406;9.984;2022-08-11T15:52:04;27.60;35.60
17994;DHT22;9122;48.406;9.984;2022-08-11T15:54:47;27.50;35.80
17994;DHT22;9122;48.406;9.984;2022-08-11T15:57:32;27.50;36.00
17994;DHT22;9122;48.406;9.984;2022-08-11T16:00:39;27.50;35.70
17994;DHT22;9122;48.406;9.984;2022-08-11T16:03:51;27.50;35.70
17994;DHT22;9122;48.406;9.984;2022-08-11T16:07:05;27.50;35.90
17994;DHT22;9122;48.406;9.984;2022-08-11T16:09:59;27.50;36.00
17994;DHT22;9122;48.406;9.984;2022-08-11T16:12:49;27.50;35.90
17994;DHT22;9122;48.406;9.984;2022-08-11T16:15:59;27.50;35.80
17994;DHT22;9122;48.406;9.984;2022-08-11T16:19:00;27.50;35.20
17994;DHT22;9122;48.406;9.984;2022-08-11T16:21:48;27.50;34.90
17994;DHT22;9122;48.406;9.984;2022-08-11T16:24:35;27.40;35.00
17994;DHT22;9122;48.406;9.984;2022-08-11T16:27:21;27.40;34.60
17994;DHT22;9122;48.406;9.984;2022-08-11T16:30:07;27.40;34.90
17994;DHT22;9122;48.406;9.984;2022-08-11T16:32:52;27.40;35.00
17994;DHT22;9122;48.406;9.984;2022-08-11T16:35:38;27.40;34.80
17994;DHT22;9122;48.406;9.984;2022-08-11T16:38:42;27.40;35.00
17994;DHT22;9122;48.406;9.984;2022-08-11T16:41:31;27.30;34.50
17994;DHT22;9122;48.406;9.984;2022-08-11T16:44:35;27.40;34.70
17994;DHT22;9122;48.406;9.984;2022-08-11T16:47:40;27.30;34.40
17994;DHT22;9122;48.406;9.984;2022-08-11T16:50:26;27.30;34.20
17994;DHT22;9122;48.406;9.984;2022-08-11T16:53:13;27.30;34.30
17994;DHT22;9122;48.406;9.984;2022-08-11T16:56:01;27.30;34.10
17994;DHT22;9122;48.406;9.984;2022-08-11T16:58:53;27.30;34.00
17994;DHT22;9122;48.406;9.984;2022-08-11T17:02:17;27.30;33.80
17994;DHT22;9122;48.406;9.984;2022-08-11T17:05:24;27.30;33.90
17994;DHT22;9122;48.406;9.984;2022-08-11T17:08:45;27.20;33.70
17994;DHT22;9122;48.406;9.984;2022-08-11T17:11:52;27.20;33.20
17994;DHT22;9122;48.406;9.984;2022-08-11T17:15:00;27.20;33.50
17994;DHT22;9122;48.406;9.984;2022-08-11T17:17:46;27.20;33.50
17994;DHT22;9122;48.406;9.984;2022-08-11T17:20:31;27.10;33.40
17994;DHT22;9122;48.406;9.984;2022-08-11T17:23:17;27.10;33.50
17994;DHT22;9122;48.406;9.984;2022-08-11T17:29:07;27.10;33.30
17994;DHT22;9122;48.406;9.984;2022-08-11T17:31:53;27.10;33.50
17994;DHT22;9122;48.406;9.984;2022-08-11T17:35:07;27.10;33.40
17994;DHT22;9122;48.406;9.984;2022-08-11T17:38:19;27.10;33.50
17994;DHT22;9122;48.406;9.984;2022-08-11T17:41:04;27.00;33.20
17994;DHT22;9122;48.406;9.984;2022-08-11T17:44:08;27.00;33.30
17994;DHT22;9122;48.406;9.984;2022-08-11T17:47:12;27.00;33.50
17994;DHT22;9122;48.406;9.984;2022-08-11T17:50:16;26.90;33.50
17994;DHT22;9122;48.406;9.984;2022-08-11T17:53:01;26.90;33.50
17994;DHT22;9122;48.406;9.984;2022-08-11T17:56:05;26.90;33.60
17994;DHT22;9122;48.406;9.984;2022-08-11T17:59:10;26.90;33.70
17994;DHT22;9122;48.406;9.984;2022-08-11T18:02:14;26.80;33.80
17994;DHT22;9122;48.406;9.984;2022-08-11T18:05:20;26.80;34.00
17994;DHT22;9122;48.406;9.984;2022-08-11T18:08:08;26.80;34.60
17994;DHT22;9122;48.406;9.984;2022-08-11T18:11:14;26.70;34.00
17994;DHT22;9122;48.406;9.984;2022-08-11T18:14:19;26.70;33.90
17994;DHT22;9122;48.406;9.984;2022-08-11T18:17:23;26.70;34.10
17994;DHT22;9122;48.406;9.984;2022-08-11T18:20:26;26.70;34.30
17994;DHT22;9122;48.406;9.984;2022-08-11T18:23:30;26.70;34.50
17994;DHT22;9122;48.406;9.984;2022-08-11T18:26:34;26.60;34.50
17994;DHT22;9122;48.406;9.984;2022-08-11T18:29:39;26.60;34.70
17994;DHT22;9122;48.406;9.984;2022-08-11T18:32:46;26.50;34.90
17994;DHT22;9122;48.406;9.984;2022-08-11T18:35:54;26.50;35.00
17994;DHT22;9122;48.406;9.984;2022-08-11T18:39:02;26.50;35.20
17994;DHT22;9122;48.406;9.984;2022-08-11T18:42:11;26.40;35.40
17994;DHT22;9122;48.406;9.984;2022-08-11T18:45:18;26.40;35.60
17994;DHT22;9122;48.406;9.984;2022-08-11T18:48:23;26.40;35.80
17994;DHT22;9122;48.406;9.984;2022-08-11T18:51:27;26.30;35.80
17994;DHT22;9122;48.406;9.984;2022-08-11T18:54:33;26.30;36.00
17994;DHT22;9122;48.406;9.984;2022-08-11T18:57:39;26.20;36.00
17994;DHT22;9122;48.406;9.984;2022-08-11T19:00:44;26.20;36.00
17994;DHT22;9122;48.406;9.984;2022-08-11T19:03:49;26.10;36.00
17994;DHT22;9122;48.406;9.984;2022-08-11T19:06:56;26.10;36.00
17994;DHT22;9122;48.406;9.984;2022-08-11T19:09:59;26.00;36.10
17994;DHT22;9122;48.406;9.984;2022-08-11T19:13:05;26.00;36.20
17994;DHT22;9122;48.406;9.984;2022-08-11T19:16:12;26.00;36.30
17994;DHT22;9122;48.406;9.984;2022-08-11T19:19:18;26.00;36.30
17994;DHT22;9122;48.406;9.984;2022-08-11T19:22:23;25.90;36.50
17994;DHT22;9122;48.406;9.984;2022-08-11T19:25:29;25.90;36.20
17994;DHT22;9122;48.406;9.984;2022-08-11T19:28:35;25.80;36.30
17994;DHT22;9122;48.406;9.984;2022-08-11T19:31:39;25.80;36.00
17994;DHT22;9122;48.406;9.984;2022-08-11T19:34:43;25.80;36.00
17994;DHT22;9122;48.406;9.984;2022-08-11T19:37:48;25.70;36.00
17994;DHT22;9122;48.406;9.984;2022-08-11T19:40:53;25.70;36.00
17994;DHT22;9122;48.406;9.984;2022-08-11T19:43:57;25.70;36.10
17994;DHT22;9122;48.406;9.984;2022-08-11T19:47:01;25.70;36.40
17994;DHT22;9122;48.406;9.984;2022-08-11T19:50:09;25.60;36.50
17994;DHT22;9122;48.406;9.984;2022-08-11T19:53:14;25.60;36.70
17994;DHT22;9122;48.406;9.984;2022-08-11T19:56:17;25.50;36.60
17994;DHT22;9122;48.406;9.984;2022-08-11T19:59:22;25.50;36.60
17994;DHT22;9122;48.406;9.984;2022-08-11T20:02:27;25.50;36.60
17994;DHT22;9122;48.406;9.984;2022-08-11T20:05:31;25.40;36.70
17994;DHT22;9122;48.406;9.984;2022-08-11T20:08:36;25.40;36.80
17994;DHT22;9122;48.406;9.984;2022-08-11T20:11:43;25.40;37.00
17994;DHT22;9122;48.406;9.984;2022-08-11T20:14:48;25.30;37.30
17994;DHT22;9122;48.406;9.984;2022-08-11T20:17:54;25.30;37.50
17994;DHT22;9122;48.406;9.984;2022-08-11T20:20:58;25.20;37.70
17994;DHT22;9122;48.406;9.984;2022-08-11T20:24:02;25.20;37.90
17994;DHT22;9122;48.406;9.984;2022-08-11T20:27:05;25.20;38.10
17994;DHT22;9122;48.406;9.984;2022-08-11T20:30:11;25.10;38.20
17994;DHT22;9122;48.406;9.984;2022-08-11T20:33:15;25.10;38.50
17994;DHT22;9122;48.406;9.984;2022-08-11T20:36:19;25.00;38.60
17994;DHT22;9122;48.406;9.984;2022-08-11T20:39:24;25.00;38.90
17994;DHT22;9122;48.406;9.984;2022-08-11T20:42:28;25.00;38.80
17994;DHT22;9122;48.406;9.984;2022-08-11T20:45:33;24.90;39.00
17994;DHT22;9122;48.406;9.984;2022-08-11T20:48:38;24.90;39.20
17994;DHT22;9122;48.406;9.984;2022-08-11T20:51:43;24.90;39.30
17994;DHT22;9122;48.406;9.984;2022-08-11T20:54:48;24.80;39.50
17994;DHT22;9122;48.406;9.984;2022-08-11T20:57:53;24.80;39.70
17994;DHT22;9122;48.406;9.984;2022-08-11T21:00:57;24.80;39.80
17994;DHT22;9122;48.406;9.984;2022-08-11T21:04:01;24.70;39.90
17994;DHT22;9122;48.406;9.984;2022-08-11T21:07:06;24.70;40.00
17994;DHT22;9122;48.406;9.984;2022-08-11T21:10:10;24.60;40.10
17994;DHT22;9122;48.406;9.984;2022-08-11T21:13:14;24.60;40.10
17994;DHT22;9122;48.406;9.984;2022-08-11T21:16:25;24.60;40.10
17994;DHT22;9122;48.406;9.984;2022-08-11T21:19:36;24.50;40.10
17994;DHT22;9122;48.406;9.984;2022-08-11T21:22:46;24.40;40.30
17994;DHT22;9122;48.406;9.984;2022-08-11T21:26:06;24.40;40.30
17994;DHT22;9122;48.406;9.984;2022-08-11T21:29:12;24.40;40.50
17994;DHT22;9122;48.406;9.984;2022-08-11T21:32:17;24.30;40.50
17994;DHT22;9122;48.406;9.984;2022-08-11T21:35:21;24.30;40.60
17994;DHT22;9122;48.406;9.984;2022-08-11T21:38:26;24.20;40.60
17994;DHT22;9122;48.406;9.984;2022-08-11T21:41:31;24.20;40.70
17994;DHT22;9122;48.406;9.984;2022-08-11T21:44:35;24.10;40.60
17994;DHT22;9122;48.406;9.984;2022-08-11T21:47:40;24.10;40.80
17994;DHT22;9122;48.406;9.984;2022-08-11T21:50:44;24.00;40.80
17994;DHT22;9122;48.406;9.984;2022-08-11T21:53:47;24.00;41.00
17994;DHT22;9122;48.406;9.984;2022-08-11T21:56:51;24.00;41.10
17994;DHT22;9122;48.406;9.984;2022-08-11T21:59:57;23.90;41.20
17994;DHT22;9122;48.406;9.984;2022-08-11T22:03:01;23.90;41.40